Time;durP1;ratioP1;P1;durP2;ratioP2;P2;SDS_P1;SDS_P2;PMS_P1;PMS_P2;Temp;Humidity;BMP_temperature;BMP_pressure;BME280_temperature;BME280_humidity;BME280_pressure;Samples;Min_cycle;Max_cycle;Signal;HPM_P1;HPM_P2
2023/09/30 00:01:10;;;;;;;;;;;;;;;22.65;62.97;101593.78;4783882;29;6322;-73
2023/09/30 00:03:37;;;;;;;;;;;;;;;22.65;62.99;101594.53;4784720;29;2205;-73
2023/09/30 00:06:04;;;;;;;;;;;;;;;22.66;62.88;101595.31;4767347;29;2264;-73
2023/09/30 00:08:30;;;;;;;;;;;;;;;22.65;62.93;101605.34;4785325;29;1955;-73
2023/09/30 00:10:57;;;;;;;;;;;;;;;22.64;62.74;101598.81;4782860;29;2262;-74
2023/09/30 00:13:23;;;;;;;;;;;;;;;22.65;62.80;101605.34;4781991;29;2169;-73
2023/09/30 00:15:50;;;;;;;;;;;;;;;22.63;62.94;101608.13;4782534;29;2504;-73
2023/09/30 00:18:16;;;;;;;;;;;;;;;22.64;62.44;101612.53;4782706;29;2008;-74
2023/09/30 00:20:43;;;;;;;;;;;;;;;22.64;62.63;101612.53;4784001;29;2158;-73
2023/09/30 00:23:09;;;;;;;;;;;;;;;22.63;62.91;101619.66;4782178;29;2148;-73
2023/09/30 00:25:36;;;;;;;;;;;;;;;22.63;62.86;101613.91;4781888;29;2579;-73
2023/09/30 00:28:02;;;;;;;;;;;;;;;22.63;62.65;101628.31;4781450;29;2157;-73
2023/09/30 00:30:28;;;;;;;;;;;;;;;22.62;62.77;101626.84;4782716;29;6926;-74
2023/09/30 00:32:55;;;;;;;;;;;;;;;22.62;62.54;101632.63;4783001;29;2299;-73
2023/09/30 00:35:22;;;;;;;;;;;;;;;22.62;62.66;101629.75;4782403;29;2144;-73
2023/09/30 00:37:49;;;;;;;;;;;;;;;22.61;62.55;101626.09;4783421;29;2303;-73
2023/09/30 00:40:16;;;;;;;;;;;;;;;22.60;62.55;101639.03;4783066;29;2110;-73
2023/09/30 00:42:42;;;;;;;;;;;;;;;22.61;62.46;101640.53;4782146;29;2169;-73
2023/09/30 00:45:10;;;;;;;;;;;;;;;22.61;62.58;101651.31;4783897;29;2363;-74
2023/09/30 00:47:36;;;;;;;;;;;;;;;22.61;62.72;101651.31;4767313;29;2049;-73
2023/09/30 00:50:04;;;;;;;;;;;;;;;22.61;62.71;101654.22;4783179;29;2298;-73
2023/09/30 00:52:31;;;;;;;;;;;;;;;22.59;62.53;101655.63;4767167;29;2099;-74
2023/09/30 00:54:58;;;;;;;;;;;;;;;22.59;62.45;101649.84;4766402;29;2211;-73
2023/09/30 00:57:24;;;;;;;;;;;;;;;22.58;62.64;101659.13;4781813;29;2137;-73
2023/09/30 00:59:51;;;;;;;;;;;;;;;22.57;62.47;101658.41;4779528;29;2120;-73
2023/09/30 01:02:18;;;;;;;;;;;;;;;22.57;62.46;101651.88;4781495;29;6423;-73
2023/09/30 01:04:44;;;;;;;;;;;;;;;22.58;62.63;101653.38;4767210;29;2146;-73
2023/09/30 01:07:11;;;;;;;;;;;;;;;22.58;62.64;101664.91;4782556;29;2141;-73
2023/09/30 01:09:37;;;;;;;;;;;;;;;22.57;62.36;101666.31;4782640;29;2301;-73
2023/09/30 01:12:04;;;;;;;;;;;;;;;22.57;62.29;101672.81;4782360;29;2194;-73
2023/09/30 01:14:31;;;;;;;;;;;;;;;22.56;62.63;101677.13;4784230;29;2276;-73
2023/09/30 01:16:57;;;;;;;;;;;;;;;22.56;62.46;101676.34;4783399;29;2171;-73
2023/09/30 01:19:25;;;;;;;;;;;;;;;22.55;62.32;101684.28;4783127;29;2114;-73
2023/09/30 01:21:58;;;;;;;;;;;;;;;22.55;62.40;101681.38;4782736;29;2109;-73
2023/09/30 01:24:25;;;;;;;;;;;;;;;22.54;62.59;101682.78;4781410;29;2337;-73
2023/09/30 01:26:52;;;;;;;;;;;;;;;22.55;62.41;101684.28;4779972;29;2399;-73
2023/09/30 01:29:19;;;;;;;;;;;;;;;22.54;62.53;101694.34;4777871;29;2401;-73
2023/09/30 01:31:47;;;;;;;;;;;;;;;22.55;62.55;101695.81;4776668;29;6052;-73
2023/09/30 01:34:15;;;;;;;;;;;;;;;22.53;62.30;101707.25;4781883;29;2256;-73
2023/09/30 01:36:44;;;;;;;;;;;;;;;22.54;62.33;101708.78;4782635;29;2238;-73
2023/09/30 01:39:10;;;;;;;;;;;;;;;22.53;62.40;101718.06;4779894;29;2217;-73
2023/09/30 01:41:37;;;;;;;;;;;;;;;22.54;62.58;101716.66;4781422;29;2078;-73
2023/09/30 01:44:06;;;;;;;;;;;;;;;22.54;62.47;101723.19;4766127;29;2809;-73
2023/09/30 01:46:32;;;;;;;;;;;;;;;22.54;62.33;101723.19;4779388;29;2479;-73
2023/09/30 01:48:59;;;;;;;;;;;;;;;22.53;62.36;101721.69;4781723;29;2224;-73
2023/09/30 01:51:27;;;;;;;;;;;;;;;22.53;62.21;101721.69;4780618;29;2415;-73
2023/09/30 01:53:54;;;;;;;;;;;;;;;22.53;62.08;101729.59;4782365;29;2279;-73
2023/09/30 01:56:21;;;;;;;;;;;;;;;22.52;62.45;101725.97;4782353;29;2173;-73
2023/09/30 01:58:48;;;;;;;;;;;;;;;22.52;62.28;101734.63;4767869;29;2170;-73
2023/09/30 02:01:15;;;;;;;;;;;;;;;22.52;62.42;101737.53;4779275;29;6199;-73
2023/09/30 02:03:41;;;;;;;;;;;;;;;22.53;62.29;101744.03;4781048;29;2173;-73
2023/09/30 02:06:08;;;;;;;;;;;;;;;22.52;62.12;101746.19;4783893;29;2157;-74
2023/09/30 02:08:36;;;;;;;;;;;;;;;22.52;62.20;101751.97;4781740;29;2243;-74
2023/09/30 02:11:05;;;;;;;;;;;;;;;22.51;62.11;101750.44;4781693;29;2206;-73
2023/09/30 02:13:32;;;;;;;;;;;;;;;22.52;62.23;101754.09;4783489;29;2097;-73
2023/09/30 02:15:59;;;;;;;;;;;;;;;22.51;62.20;101747.56;4783339;29;2117;-74
2023/09/30 02:18:25;;;;;;;;;;;;;;;22.51;62.13;101738.91;4784322;29;2223;-73
2023/09/30 02:20:53;;;;;;;;;;;;;;;22.50;61.92;101740.31;4786474;29;2091;-73
2023/09/30 02:23:21;;;;;;;;;;;;;;;22.51;62.23;101741.78;4785581;29;2618;-73
2023/09/30 02:25:47;;;;;;;;;;;;;;;22.49;61.86;101750.34;4769402;29;2177;-73
2023/09/30 02:28:14;;;;;;;;;;;;;;;22.50;62.09;101743.19;4786504;29;2351;-73
2023/09/30 02:30:40;;;;;;;;;;;;;;;22.49;61.84;101750.34;4787465;29;7424;-74
2023/09/30 02:33:07;;;;;;;;;;;;;;;22.49;62.17;101756.09;4784381;29;2169;-73
2023/09/30 02:35:33;;;;;;;;;;;;;;;22.50;62.08;101751.84;4785069;29;2347;-73
2023/09/30 02:38:00;;;;;;;;;;;;;;;22.49;61.99;101753.22;4770128;29;2209;-73
2023/09/30 02:40:27;;;;;;;;;;;;;;;22.50;62.09;101762.66;4783356;29;2227;-73
2023/09/30 02:42:54;;;;;;;;;;;;;;;22.48;61.75;101771.94;4785966;29;1939;-73
2023/09/30 02:45:20;;;;;;;;;;;;;;;22.48;61.66;101777.72;4784847;29;2368;-73
2023/09/30 02:47:47;;;;;;;;;;;;;;;22.48;61.87;101776.97;4785631;29;2163;-73
2023/09/30 02:50:13;;;;;;;;;;;;;;;22.47;61.78;101779.13;4786785;29;2328;-73
2023/09/30 02:52:43;;;;;;;;;;;;;;;22.48;61.80;101783.50;4785172;29;2050;-73
2023/09/30 02:55:09;;;;;;;;;;;;;;;22.48;61.97;101771.19;4785417;29;2340;-73
2023/09/30 02:57:36;;;;;;;;;;;;;;;22.48;61.57;101771.94;4786382;29;2082;-73
2023/09/30 03:00:12;;;;;;;;;;;;;;;22.47;61.75;101782.00;4785513;29;2309;-73
2023/09/30 03:02:39;;;;;;;;;;;;;;;22.47;61.54;101779.13;4786518;29;6060;-73
2023/09/30 03:05:06;;;;;;;;;;;;;;;22.47;61.51;101782.00;4785001;29;2325;-73
2023/09/30 03:07:33;;;;;;;;;;;;;;;22.47;61.81;101787.78;4784956;29;2186;-74
2023/09/30 03:10:06;;;;;;;;;;;;;;;22.46;61.78;101789.16;4785912;29;1978;-73
2023/09/30 03:12:32;;;;;;;;;;;;;;;22.46;61.69;101783.38;4785994;29;2137;-73
2023/09/30 03:14:58;;;;;;;;;;;;;;;22.46;61.46;101788.41;4786849;29;2340;-73
2023/09/30 03:17:25;;;;;;;;;;;;;;;22.46;61.77;101794.94;4785057;29;2070;-73
2023/09/30 03:19:52;;;;;;;;;;;;;;;22.46;61.40;101794.19;4784793;29;2100;-73
2023/09/30 03:22:19;;;;;;;;;;;;;;;22.44;61.64;101803.47;4786110;29;2078;-73
2023/09/30 03:24:45;;;;;;;;;;;;;;;22.46;61.49;101802.84;4786960;29;2202;-73
2023/09/30 03:27:11;;;;;;;;;;;;;;;22.45;61.51;101807.88;4770113;29;2118;-73
2023/09/30 03:29:38;;;;;;;;;;;;;;;22.44;61.46;101809.25;4784620;29;2137;-73
2023/09/30 03:32:05;;;;;;;;;;;;;;;22.44;61.37;101806.34;4784653;29;6705;-73
2023/09/30 03:34:31;;;;;;;;;;;;;;;22.45;61.40;101815.75;4787048;29;1927;-73
2023/09/30 03:37:01;;;;;;;;;;;;;;;22.44;61.51;101805.63;4768645;29;2389;-73
2023/09/30 03:39:27;;;;;;;;;;;;;;;22.45;61.43;101812.88;4784858;29;1997;-73
2023/09/30 03:41:54;;;;;;;;;;;;;;;22.43;61.31;101807.75;4784297;29;2142;-73
2023/09/30 03:44:22;;;;;;;;;;;;;;;22.42;61.10;101814.91;4784739;29;2213;-72
2023/09/30 03:46:50;;;;;;;;;;;;;;;22.43;61.41;101816.41;4786172;29;2224;-72
2023/09/30 03:49:16;;;;;;;;;;;;;;;22.43;61.15;101816.41;4785645;29;2148;-72
2023/09/30 03:51:43;;;;;;;;;;;;;;;22.43;61.01;101821.44;4785328;29;2181;-72
2023/09/30 03:54:09;;;;;;;;;;;;;;;22.42;61.07;101814.91;4784288;29;2078;-72
2023/09/30 03:56:36;;;;;;;;;;;;;;;22.42;61.07;101812.03;4785847;29;2344;-72
2023/09/30 03:59:03;;;;;;;;;;;;;;;22.41;61.13;101818.44;4786793;29;2065;-72
2023/09/30 04:01:30;;;;;;;;;;;;;;;22.41;61.14;101813.41;4783390;29;6109;-72
2023/09/30 04:03:57;;;;;;;;;;;;;;;22.41;60.96;101819.19;4784417;29;2278;-71
2023/09/30 04:06:24;;;;;;;;;;;;;;;22.41;61.02;101824.22;4785783;29;2284;-71
2023/09/30 04:08:51;;;;;;;;;;;;;;;22.41;60.93;101824.22;4786762;29;2228;-72
2023/09/30 04:11:19;;;;;;;;;;;;;;;22.42;61.19;101838.00;4785222;29;2314;-71
2023/09/30 04:13:45;;;;;;;;;;;;;;;22.41;60.77;101836.50;4784998;29;2165;-72
2023/09/30 04:16:12;;;;;;;;;;;;;;;22.41;60.78;101839.41;4768074;29;2007;-73
2023/09/30 04:18:41;;;;;;;;;;;;;;;22.39;60.84;101836.41;4786619;29;2181;-72
2023/09/30 04:21:07;;;;;;;;;;;;;;;22.39;61.06;101836.41;4784524;29;2176;-72
2023/09/30 04:23:37;;;;;;;;;;;;;;;22.38;60.76;101838.53;4785202;29;2066;-72
2023/09/30 04:26:05;;;;;;;;;;;;;;;22.38;60.77;101838.53;4783275;29;2273;-72
2023/09/30 04:28:31;;;;;;;;;;;;;;;22.37;60.72;101834.16;4783614;29;2540;-72
2023/09/30 04:30:58;;;;;;;;;;;;;;;22.37;60.88;101845.69;4786190;29;6394;-72
2023/09/30 04:33:25;;;;;;;;;;;;;;;22.39;60.64;101842.16;4786100;29;2136;-72
2023/09/30 04:35:51;;;;;;;;;;;;;;;22.37;60.76;101842.81;4785386;29;2246;-72
2023/09/30 04:38:18;;;;;;;;;;;;;;;22.37;60.87;101836.28;4786088;29;2446;-71
2023/09/30 04:40:44;;;;;;;;;;;;;;;22.37;60.66;101830.50;4784542;29;2146;-72
2023/09/30 04:43:10;;;;;;;;;;;;;;;22.37;60.92;101830.50;4785129;29;2097;-72
2023/09/30 04:45:37;;;;;;;;;;;;;;;22.36;60.72;101829.03;4784750;29;2091;-72
2023/09/30 04:48:04;;;;;;;;;;;;;;;22.35;60.67;101828.25;4785099;29;2459;-72
2023/09/30 04:50:30;;;;;;;;;;;;;;;22.35;61.01;101839.06;4784437;29;2150;-72
2023/09/30 04:52:59;;;;;;;;;;;;;;;22.35;60.92;101839.81;4785751;29;2216;-71
2023/09/30 04:55:26;;;;;;;;;;;;;;;22.35;61.02;101839.06;4783675;29;2118;-72
2023/09/30 04:57:52;;;;;;;;;;;;;;;22.35;60.95;101844.84;4782991;29;2272;-72
2023/09/30 05:00:21;;;;;;;;;;;;;;;22.35;60.98;101844.84;4784073;29;6202;-72
2023/09/30 05:02:48;;;;;;;;;;;;;;;22.34;60.64;101863.53;4785471;29;2798;-71
2023/09/30 05:05:15;;;;;;;;;;;;;;;22.34;60.64;101860.66;4785571;29;2049;-72
2023/09/30 05:07:42;;;;;;;;;;;;;;;22.34;60.79;101860.66;4783319;29;2165;-72
2023/09/30 05:10:13;;;;;;;;;;;;;;;22.34;60.89;101860.66;4784203;29;2078;-71
2023/09/30 05:12:45;;;;;;;;;;;;;;;22.32;60.98;101849.75;4786623;29;1982;-72
2023/09/30 05:15:13;;;;;;;;;;;;;;;22.33;60.76;101856.25;4782686;29;2234;-72
2023/09/30 05:17:39;;;;;;;;;;;;;;;22.33;60.96;101859.16;4781683;29;2383;-71
2023/09/30 05:20:07;;;;;;;;;;;;;;;22.32;60.98;101864.19;4783784;29;2102;-71
2023/09/30 05:22:33;;;;;;;;;;;;;;;22.33;60.68;101873.56;4783456;29;2456;-72
2023/09/30 05:25:00;;;;;;;;;;;;;;;22.33;60.82;101885.13;4784833;29;2099;-72
2023/09/30 05:27:27;;;;;;;;;;;;;;;22.35;60.81;101885.22;4785252;29;2197;-71
2023/09/30 05:29:55;;;;;;;;;;;;;;;22.33;60.58;101888.00;4767750;29;2429;-72
2023/09/30 05:32:22;;;;;;;;;;;;;;;22.33;60.86;101890.91;4783320;29;6431;-72
2023/09/30 05:34:48;;;;;;;;;;;;;;;22.31;60.56;101894.44;4783827;29;2248;-71
2023/09/30 05:37:15;;;;;;;;;;;;;;;22.30;60.74;101895.06;4779505;29;2408;-71
2023/09/30 05:39:41;;;;;;;;;;;;;;;22.30;60.67;101900.84;4780849;29;2086;-72
2023/09/30 05:42:08;;;;;;;;;;;;;;;22.30;60.67;101898.69;4782859;29;2269;-72
2023/09/30 05:44:35;;;;;;;;;;;;;;;22.33;60.81;101905.31;4784800;29;2224;-72
2023/09/30 05:47:02;;;;;;;;;;;;;;;22.31;60.76;101908.88;4779343;29;2419;-72
2023/09/30 05:49:29;;;;;;;;;;;;;;;22.33;60.77;101922.63;4781839;29;2279;-72
2023/09/30 05:51:55;;;;;;;;;;;;;;;22.32;60.54;101916.13;4784526;29;2419;-71
2023/09/30 05:54:22;;;;;;;;;;;;;;;22.32;60.51;101924.03;4786022;29;2268;-72
2023/09/30 05:56:49;;;;;;;;;;;;;;;22.31;60.77;101914.63;4769420;29;2238;-72
2023/09/30 05:59:15;;;;;;;;;;;;;;;22.31;60.49;101913.88;4787107;29;2201;-72
2023/09/30 06:01:42;;;;;;;;;;;;;;;22.32;60.42;101921.16;4783886;29;6267;-72
2023/09/30 06:04:09;;;;;;;;;;;;;;;22.30;60.44;101927.53;4784785;29;2174;-71
2023/09/30 06:06:35;;;;;;;;;;;;;;;22.30;60.72;101927.53;4786567;29;2149;-72
2023/09/30 06:09:02;;;;;;;;;;;;;;;22.30;60.62;101930.44;4785663;29;2208;-72
2023/09/30 06:11:28;;;;;;;;;;;;;;;22.29;60.65;101928.94;4787434;29;2129;-72
2023/09/30 06:13:55;;;;;;;;;;;;;;;22.30;60.59;101929.69;4784900;29;2170;-71
2023/09/30 06:16:21;;;;;;;;;;;;;;;22.30;60.49;101930.44;4787674;29;2249;-71
2023/09/30 06:18:48;;;;;;;;;;;;;;;22.29;60.61;101928.94;4787149;29;2160;-72
2023/09/30 06:21:17;;;;;;;;;;;;;;;22.29;60.73;101934.72;4786664;29;2169;-72
2023/09/30 06:23:44;;;;;;;;;;;;;;;22.30;60.62;101941.22;4785403;29;2388;-72
2023/09/30 06:26:10;;;;;;;;;;;;;;;22.29;60.55;101933.97;4786880;29;2185;-72
2023/09/30 06:28:40;;;;;;;;;;;;;;;22.28;60.61;101938.97;4788618;29;2229;-72
2023/09/30 06:31:07;;;;;;;;;;;;;;;22.29;60.64;101936.84;4788407;29;6263;-72
2023/09/30 06:33:35;;;;;;;;;;;;;;;22.28;60.32;101944.00;4784651;29;2360;-72
2023/09/30 06:36:02;;;;;;;;;;;;;;;22.29;60.13;101957.06;4786337;29;2306;-72
2023/09/30 06:38:28;;;;;;;;;;;;;;;22.29;60.14;101939.75;4787811;29;2295;-73
2023/09/30 06:40:55;;;;;;;;;;;;;;;22.27;60.36;101943.25;4786232;29;2404;-71
2023/09/30 06:43:22;;;;;;;;;;;;;;;22.29;60.40;101946.25;4786568;29;2145;-72
2023/09/30 06:45:48;;;;;;;;;;;;;;;21.82;58.61;101957.25;4787408;29;2099;-72
2023/09/30 06:48:15;;;;;;;;;;;;;;;20.91;59.78;101949.03;4788010;29;1985;-72
2023/09/30 06:50:48;;;;;;;;;;;;;;;20.68;60.05;101954.75;4786151;29;2162;-72
2023/09/30 06:53:16;;;;;;;;;;;;;;;20.57;59.72;101958.38;4787152;29;2239;-75
2023/09/30 06:55:43;;;;;;;;;;;;;;;20.18;59.79;101973.16;4786442;29;2227;-73
2023/09/30 06:58:10;;;;;;;;;;;;;;;20.09;60.09;101969.00;4784682;29;2411;-74
2023/09/30 07:00:40;;;;;;;;;;;;;;;20.07;59.68;101978.25;4784283;29;6259;-74
2023/09/30 07:03:09;;;;;;;;;;;;;;;19.88;60.20;101973.44;4785938;29;2309;-73
2023/09/30 07:05:35;;;;;;;;;;;;;;;19.88;59.85;101987.03;4784606;29;2379;-74
2023/09/30 07:08:02;;;;;;;;;;;;;;;20.13;59.69;101982.88;4784864;29;2308;-74
2023/09/30 07:10:29;;;;;;;;;;;;;;;20.27;59.25;101986.69;4787217;29;2114;-74
2023/09/30 07:12:55;;;;;;;;;;;;;;;20.40;58.73;101986.09;4786250;29;1907;-74
2023/09/30 07:15:22;;;;;;;;;;;;;;;20.19;58.60;101998.41;4787632;29;1968;-78
2023/09/30 07:17:48;;;;;;;;;;;;;;;20.03;59.63;102000.22;4787140;29;2958;-73
2023/09/30 07:20:15;;;;;;;;;;;;;;;19.96;59.58;102001.22;4787007;29;2072;-74
2023/09/30 07:22:41;;;;;;;;;;;;;;;19.97;59.77;102005.56;4788287;29;1917;-69
2023/09/30 07:25:24;;;;;;;;;;;;;;;20.15;58.98;102011.78;4787704;29;1967;-80
2023/09/30 07:27:51;;;;;;;;;;;;;;;19.84;59.97;102007.66;4784951;29;2308;-75
2023/09/30 07:30:17;;;;;;;;;;;;;;;20.05;59.82;102017.63;4782386;29;6379;-74
2023/09/30 07:32:44;;;;;;;;;;;;;;;20.46;58.30;102023.91;4787338;29;2573;-72
2023/09/30 07:35:11;;;;;;;;;;;;;;;20.34;58.47;102028.09;4785075;29;2487;-73
2023/09/30 07:37:37;;;;;;;;;;;;;;;20.67;57.90;102025.97;4786010;29;2292;-73
2023/09/30 07:40:04;;;;;;;;;;;;;;;20.93;57.27;102018.22;4786197;29;2367;-74
2023/09/30 07:42:33;;;;;;;;;;;;;;;21.05;57.09;102023.25;4786937;29;2325;-73
2023/09/30 07:44:59;;;;;;;;;;;;;;;21.19;57.18;102029.91;4784325;29;2133;-75
2023/09/30 07:47:26;;;;;;;;;;;;;;;21.25;57.56;102026.63;4786724;29;2120;-74
2023/09/30 07:49:52;;;;;;;;;;;;;;;21.31;57.44;102033.53;4785700;29;2422;-74
2023/09/30 07:52:19;;;;;;;;;;;;;;;21.38;57.20;102031.03;4785959;29;2284;-74
2023/09/30 07:54:45;;;;;;;;;;;;;;;21.43;57.19;102029.91;4785327;29;2464;-73
2023/09/30 07:57:11;;;;;;;;;;;;;;;21.47;57.16;102038.81;4782316;29;2395;-73
2023/09/30 07:59:38;;;;;;;;;;;;;;;21.49;57.53;102041.81;4783738;29;2137;-74
2023/09/30 08:02:06;;;;;;;;;;;;;;;21.51;57.32;102044.81;4782776;29;6177;-73
2023/09/30 08:04:33;;;;;;;;;;;;;;;21.54;57.74;102043.56;4784783;29;2272;-73
2023/09/30 08:06:59;;;;;;;;;;;;;;;21.54;57.42;102035.66;4781184;29;2145;-73
2023/09/30 08:09:26;;;;;;;;;;;;;;;21.57;57.68;102045.19;4784331;29;2396;-73
2023/09/30 08:11:56;;;;;;;;;;;;;;;21.59;57.42;102038.78;4785367;29;2365;-74
2023/09/30 08:14:22;;;;;;;;;;;;;;;21.61;57.64;102041.81;4785389;29;2063;-74
2023/09/30 08:16:49;;;;;;;;;;;;;;;21.61;57.55;102036.78;4785347;29;2063;-74
2023/09/30 08:19:15;;;;;;;;;;;;;;;21.65;57.50;102042.03;4785626;29;2077;-74
2023/09/30 08:21:42;;;;;;;;;;;;;;;21.65;57.94;102057.22;4782883;29;2343;-73
2023/09/30 08:24:08;;;;;;;;;;;;;;;21.61;57.64;102059.84;4782772;29;2430;-75
2023/09/30 08:26:35;;;;;;;;;;;;;;;21.58;57.96;102066.09;4784005;29;2405;-74
2023/09/30 08:29:02;;;;;;;;;;;;;;;21.65;57.72;102059.34;4782967;29;2525;-74
2023/09/30 08:31:28;;;;;;;;;;;;;;;21.61;57.67;102056.22;4782957;29;6725;-72
2023/09/30 08:33:55;;;;;;;;;;;;;;;21.64;57.79;102055.69;4784401;29;1985;-73
2023/09/30 08:36:22;;;;;;;;;;;;;;;21.53;58.12;102054.34;4787267;29;2554;-73
2023/09/30 08:38:48;;;;;;;;;;;;;;;21.58;57.79;102055.34;4783199;29;2448;-73
2023/09/30 08:41:24;;;;;;;;;;;;;;;21.64;57.90;102052.06;4785632;29;2336;-73
2023/09/30 08:43:50;;;;;;;;;;;;;;;21.69;57.39;102048.03;4784276;29;2074;-73
2023/09/30 08:46:17;;;;;;;;;;;;;;;21.71;57.34;102048.91;4783966;29;2343;-73
2023/09/30 08:48:43;;;;;;;;;;;;;;;21.73;57.46;102054.78;4783919;29;2122;-72
2023/09/30 08:51:10;;;;;;;;;;;;;;;21.75;57.74;102057.81;4783697;29;2443;-73
2023/09/30 08:53:36;;;;;;;;;;;;;;;21.75;57.83;102060.69;4784113;29;2343;-73
2023/09/30 08:56:07;;;;;;;;;;;;;;;21.78;57.67;102063.69;4782262;29;2468;-72
2023/09/30 08:58:34;;;;;;;;;;;;;;;21.78;57.71;102066.56;4782945;29;2575;-72
2023/09/30 09:01:01;;;;;;;;;;;;;;;21.79;58.01;102056.56;4780484;29;6455;-72
2023/09/30 09:03:28;;;;;;;;;;;;;;;21.79;57.88;102050.78;4783060;29;2325;-72
2023/09/30 09:05:57;;;;;;;;;;;;;;;21.80;58.06;102061.69;4783402;29;2309;-72
2023/09/30 09:08:24;;;;;;;;;;;;;;;21.80;57.73;102044.38;4768887;29;1979;-72
2023/09/30 09:10:56;;;;;;;;;;;;;;;21.81;57.90;102048.03;4783338;29;2300;-72
2023/09/30 09:13:22;;;;;;;;;;;;;;;21.82;58.14;102046.63;4784925;29;2382;-71
2023/09/30 09:15:49;;;;;;;;;;;;;;;21.82;57.88;102044.50;4782969;29;2344;-73
2023/09/30 09:18:31;;;;;;;;;;;;;;;21.82;58.14;102049.53;4781996;29;2432;-72
2023/09/30 09:21:11;;;;;;;;;;;;;;;21.83;58.20;102051.00;4783487;29;2418;-71
2023/09/30 09:23:43;;;;;;;;;;;;;;;21.78;58.44;102052.16;4784184;29;2303;-77
2023/09/30 09:26:10;;;;;;;;;;;;;;;21.82;57.87;102055.28;4784449;29;2269;-75
2023/09/30 09:28:38;;;;;;;;;;;;;;;21.79;58.15;102056.56;4769102;29;2034;-72
2023/09/30 09:31:23;;;;;;;;;;;;;;;21.52;57.99;102057.84;4782433;29;6345;-72
2023/09/30 09:33:50;;;;;;;;;;;;;;;21.45;57.83;102065.38;4784436;29;2134;-74
2023/09/30 09:36:17;;;;;;;;;;;;;;;21.61;57.28;102061.97;4780149;29;2697;-75
2023/09/30 09:38:44;;;;;;;;;;;;;;;21.79;57.68;102068.09;4785381;29;2079;-95
2023/09/30 09:41:10;;;;;;;;;;;;;;;22.05;58.90;102060.22;4781415;29;3051;-85
2023/09/30 09:43:37;;;;;;;;;;;;;;;22.14;57.73;102059.31;4783579;29;2773;-75
2023/09/30 09:46:05;;;;;;;;;;;;;;;22.18;58.38;102068.97;4785989;29;2693;-80
2023/09/30 09:48:32;;;;;;;;;;;;;;;22.30;59.11;102063.19;4792852;29;2836;-82
2023/09/30 09:50:58;;;;;;;;;;;;;;;22.28;58.18;102059.44;4785556;29;2463;-81
2023/09/30 09:53:25;;;;;;;;;;;;;;;22.08;57.73;102056.06;4773673;29;2695;-76
2023/09/30 09:55:52;;;;;;;;;;;;;;;22.08;57.52;102056.84;4781416;29;2928;-76
2023/09/30 09:58:20;;;;;;;;;;;;;;;22.20;59.31;102053.16;4783022;29;2969;-74
2023/09/30 10:00:46;;;;;;;;;;;;;;;22.38;58.73;102054.25;4785190;29;6341;-72
2023/09/30 10:03:13;;;;;;;;;;;;;;;22.38;58.17;102049.22;4784076;29;2679;-79
2023/09/30 10:05:39;;;;;;;;;;;;;;;22.29;57.93;102052.28;4783853;29;2432;-75
2023/09/30 10:08:07;;;;;;;;;;;;;;;22.31;58.21;102055.25;4785525;29;2399;-78
2023/09/30 10:10:40;;;;;;;;;;;;;;;22.51;58.64;102052.78;4784179;29;2844;-78
2023/09/30 10:13:06;;;;;;;;;;;;;;;22.53;57.72;102055.78;4786285;29;2279;-77
2023/09/30 10:15:34;;;;;;;;;;;;;;;22.54;57.68;102057.28;4783675;29;2426;-76
2023/09/30 10:18:03;;;;;;;;;;;;;;;22.54;58.20;102058.06;4784248;29;2526;-75
2023/09/30 10:20:30;;;;;;;;;;;;;;;22.42;58.40;102062.38;4785629;29;2336;-80
2023/09/30 10:23:15;;;;;;;;;;;;;;;22.43;58.01;102061.00;4781751;29;2423;-87
2023/09/30 10:25:47;;;;;;;;;;;;;;;22.35;58.37;102058.38;4786971;29;2383;-82
2023/09/30 10:28:32;;;;;;;;;;;;;;;22.33;58.30;102055.38;4791420;29;2356;-81
2023/09/30 10:31:08;;;;;;;;;;;;;;;22.33;58.48;102049.59;4781128;29;6388;-78
2023/09/30 10:33:35;;;;;;;;;;;;;;;22.45;58.20;102056.09;4784339;29;2475;-79
2023/09/30 10:36:03;;;;;;;;;;;;;;;22.43;58.07;102070.41;4785760;29;2446;-72
2023/09/30 10:38:29;;;;;;;;;;;;;;;22.46;57.49;102059.72;4782820;29;2395;-74
2023/09/30 10:40:57;;;;;;;;;;;;;;;22.30;57.62;102056.66;4789089;29;1690;-74
2023/09/30 10:43:33;;;;;;;;;;;;;;;22.27;56.17;102057.94;4788472;29;2490;-72
2023/09/30 10:46:00;;;;;;;;;;;;;;;22.14;55.26;102065.84;4788463;29;2297;-73
2023/09/30 10:48:33;;;;;;;;;;;;;;;22.00;54.43;102065.00;4789136;29;2290;-74
2023/09/30 10:51:00;;;;;;;;;;;;;;;21.90;54.07;102067.31;4787197;29;2400;-72
2023/09/30 10:53:27;;;;;;;;;;;;;;;21.92;53.70;102065.31;4788611;29;2399;-73
2023/09/30 10:55:54;;;;;;;;;;;;;;;21.88;53.61;102061.44;4787330;29;2343;-73
2023/09/30 10:58:21;;;;;;;;;;;;;;;21.79;53.47;102062.31;4786521;29;2471;-71
2023/09/30 11:00:51;;;;;;;;;;;;;;;21.80;53.07;102063.81;4786724;29;6106;-74
2023/09/30 11:03:19;;;;;;;;;;;;;;;21.97;52.77;102060.53;4786680;29;2459;-77
2023/09/30 11:05:51;;;;;;;;;;;;;;;22.03;52.38;102057.97;4787763;29;2384;-77
2023/09/30 11:08:37;;;;;;;;;;;;;;;22.13;52.32;102055.69;4786163;29;2458;-73
2023/09/30 11:11:04;;;;;;;;;;;;;;;22.01;52.66;102049.19;4786531;29;2335;-73
2023/09/30 11:13:31;;;;;;;;;;;;;;;22.05;52.09;102058.09;4786209;29;2330;-73
2023/09/30 11:16:02;;;;;;;;;;;;;;;21.95;51.98;102048.88;4770870;29;2446;-75
2023/09/30 11:18:28;;;;;;;;;;;;;;;21.97;51.64;102060.53;4785031;29;2504;-83
2023/09/30 11:21:04;;;;;;;;;;;;;;;22.08;50.93;102058.97;4770379;29;2603;-78
2023/09/30 11:23:31;;;;;;;;;;;;;;;22.16;50.91;102054.41;4788272;29;2323;-76
2023/09/30 11:25:58;;;;;;;;;;;;;;;22.17;50.70;102055.94;4788425;29;1954;-76
2023/09/30 11:28:26;;;;;;;;;;;;;;;22.22;50.89;102056.19;4788933;29;1846;-76
2023/09/30 11:30:53;;;;;;;;;;;;;;;22.23;50.97;102044.00;4787573;29;6411;-76
2023/09/30 11:33:22;;;;;;;;;;;;;;;22.27;51.19;102031.97;4787894;29;1907;-75
2023/09/30 11:35:56;;;;;;;;;;;;;;;22.28;51.50;102037.09;4788164;29;1548;-76
2023/09/30 11:38:23;;;;;;;;;;;;;;;22.29;51.76;102037.84;4788403;29;2192;-75
2023/09/30 11:41:03;;;;;;;;;;;;;;;22.31;52.20;102029.28;4787824;29;2332;-76
2023/09/30 11:43:30;;;;;;;;;;;;;;;22.31;52.20;102032.94;4787874;29;1641;-76
2023/09/30 11:46:09;;;;;;;;;;;;;;;22.32;52.68;102033.69;4787572;29;1944;-76
2023/09/30 11:48:36;;;;;;;;;;;;;;;22.32;52.58;102022.16;4786675;29;1809;-76
2023/09/30 11:51:03;;;;;;;;;;;;;;;22.32;52.79;102025.78;4785088;29;2386;-75
2023/09/30 11:53:30;;;;;;;;;;;;;;;22.32;53.26;102020.00;4787370;29;2518;-76
2023/09/30 11:56:02;;;;;;;;;;;;;;;22.31;53.28;102024.28;4784592;29;2358;-75
2023/09/30 11:58:28;;;;;;;;;;;;;;;22.32;53.41;102027.91;4785928;29;2423;-75
2023/09/30 12:00:55;;;;;;;;;;;;;;;22.31;53.70;102017.75;4785809;29;6092;-76
2023/09/30 12:03:21;;;;;;;;;;;;;;;22.33;53.71;102020.75;4788070;29;1686;-76
2023/09/30 12:05:49;;;;;;;;;;;;;;;22.34;54.03;102016.50;4788283;29;1711;-76
2023/09/30 12:08:15;;;;;;;;;;;;;;;22.31;54.06;102020.63;4787457;29;1900;-76
2023/09/30 12:10:42;;;;;;;;;;;;;;;22.31;54.23;102020.63;4788429;29;1730;-75
2023/09/30 12:13:11;;;;;;;;;;;;;;;22.35;54.09;102009.31;4786063;29;2337;-76
2023/09/30 12:15:38;;;;;;;;;;;;;;;22.37;54.39;102010.19;4788122;29;1638;-76
2023/09/30 12:18:05;;;;;;;;;;;;;;;22.39;54.35;102006.69;4787974;29;1533;-75
2023/09/30 12:20:33;;;;;;;;;;;;;;;22.40;54.63;102007.41;4788043;29;2136;-76
2023/09/30 12:23:00;;;;;;;;;;;;;;;22.42;54.47;101998.88;4786277;29;2340;-76
2023/09/30 12:25:26;;;;;;;;;;;;;;;22.43;54.55;102006.91;4786613;29;1690;-75
2023/09/30 12:27:55;;;;;;;;;;;;;;;22.44;54.83;102008.38;4788870;29;1934;-76
2023/09/30 12:30:21;;;;;;;;;;;;;;;22.44;54.80;102014.16;4786550;29;6135;-76
2023/09/30 12:32:48;;;;;;;;;;;;;;;22.45;55.09;101998.38;4786079;29;2311;-76
2023/09/30 12:35:14;;;;;;;;;;;;;;;22.45;54.82;102004.13;4786469;29;1807;-75
2023/09/30 12:37:43;;;;;;;;;;;;;;;22.46;55.27;101994.09;4787101;29;1585;-75
2023/09/30 12:40:11;;;;;;;;;;;;;;;22.47;54.98;102009.25;4786184;29;2328;-76
2023/09/30 12:42:37;;;;;;;;;;;;;;;22.44;55.21;101999.75;4785907;29;2431;-75
2023/09/30 12:45:05;;;;;;;;;;;;;;;22.45;55.46;101997.59;4770219;29;2345;-76
2023/09/30 12:47:31;;;;;;;;;;;;;;;22.47;55.48;102006.38;4787626;29;1666;-76
2023/09/30 12:49:58;;;;;;;;;;;;;;;22.47;55.62;102000.59;4785700;29;2413;-76